sensor_id;sensor_type;location;lat;lon;timestamp;P1;durP1;ratioP1;P2;durP2;ratioP2
3547;SDS011;1788;49.400;11.092;2022-11-28T00:01:45;25.50;;;11.73;;
3547;SDS011;1788;49.400;11.092;2022-11-28T00:04:10;25.67;;;12.23;;
3547;SDS011;1788;49.400;11.092;2022-11-28T00:06:38;28.47;;;11.83;;
3547;SDS011;1788;49.400;11.092;2022-11-28T00:09:05;29.03;;;12.80;;
3547;SDS011;1788;49.400;11.092;2022-11-28T00:11:31;26.83;;;12.83;;
3547;SDS011;1788;49.400;11.092;2022-11-28T00:13:58;23.80;;;11.30;;
3547;SDS011;1788;49.400;11.092;2022-11-28T00:16:25;23.77;;;11.23;;
3547;SDS011;1788;49.400;11.092;2022-11-28T00:18:53;28.53;;;13.50;;
3547;SDS011;1788;49.400;11.092;2022-11-28T00:21:19;26.80;;;12.07;;
3547;SDS011;1788;49.400;11.092;2022-11-28T00:23:46;22.67;;;10.80;;
3547;SDS011;1788;49.400;11.092;2022-11-28T00:26:13;22.10;;;10.93;;
3547;SDS011;1788;49.400;11.092;2022-11-28T00:28:39;24.60;;;11.07;;
3547;SDS011;1788;49.400;11.092;2022-11-28T00:33:32;21.83;;;11.30;;
3547;SDS011;1788;49.400;11.092;2022-11-28T00:36:00;24.27;;;11.97;;
3547;SDS011;1788;49.400;11.092;2022-11-28T00:38:26;27.73;;;12.77;;
3547;SDS011;1788;49.400;11.092;2022-11-28T00:43:20;20.83;;;10.27;;
3547;SDS011;1788;49.400;11.092;2022-11-28T00:45:47;28.87;;;12.53;;
3547;SDS011;1788;49.400;11.092;2022-11-28T00:48:13;21.87;;;10.97;;
3547;SDS011;1788;49.400;11.092;2022-11-28T00:50:40;24.67;;;11.40;;
3547;SDS011;1788;49.400;11.092;2022-11-28T00:53:06;19.97;;;10.40;;
3547;SDS011;1788;49.400;11.092;2022-11-28T00:55:33;25.40;;;10.93;;
3547;SDS011;1788;49.400;11.092;2022-11-28T00:58:00;23.50;;;12.03;;
3547;SDS011;1788;49.400;11.092;2022-11-28T01:00:26;23.20;;;12.10;;
3547;SDS011;1788;49.400;11.092;2022-11-28T01:02:53;23.60;;;11.33;;
3547;SDS011;1788;49.400;11.092;2022-11-28T01:05:20;21.77;;;10.80;;
3547;SDS011;1788;49.400;11.092;2022-11-28T01:07:46;23.33;;;11.37;;
3547;SDS011;1788;49.400;11.092;2022-11-28T01:10:13;22.97;;;12.17;;
3547;SDS011;1788;49.400;11.092;2022-11-28T01:12:39;23.27;;;11.50;;
3547;SDS011;1788;49.400;11.092;2022-11-28T01:15:07;23.17;;;11.53;;
3547;SDS011;1788;49.400;11.092;2022-11-28T01:17:34;22.77;;;10.97;;
3547;SDS011;1788;49.400;11.092;2022-11-28T01:20:01;19.70;;;10.93;;
3547;SDS011;1788;49.400;11.092;2022-11-28T01:22:27;20.40;;;10.97;;
3547;SDS011;1788;49.400;11.092;2022-11-28T01:24:53;23.90;;;11.63;;
3547;SDS011;1788;49.400;11.092;2022-11-28T01:27:21;21.90;;;11.67;;
3547;SDS011;1788;49.400;11.092;2022-11-28T01:29:47;18.57;;;10.03;;
3547;SDS011;1788;49.400;11.092;2022-11-28T01:32:14;23.60;;;10.50;;
3547;SDS011;1788;49.400;11.092;2022-11-28T01:34:41;20.90;;;10.80;;
3547;SDS011;1788;49.400;11.092;2022-11-28T01:37:08;21.80;;;10.37;;
3547;SDS011;1788;49.400;11.092;2022-11-28T01:39:35;19.03;;;10.10;;
3547;SDS011;1788;49.400;11.092;2022-11-28T01:42:01;24.70;;;11.20;;
3547;SDS011;1788;49.400;11.092;2022-11-28T01:46:54;21.83;;;10.00;;
3547;SDS011;1788;49.400;11.092;2022-11-28T01:49:21;20.10;;;11.53;;
3547;SDS011;1788;49.400;11.092;2022-11-28T01:51:48;24.33;;;10.70;;
3547;SDS011;1788;49.400;11.092;2022-11-28T01:54:15;24.00;;;10.50;;
3547;SDS011;1788;49.400;11.092;2022-11-28T01:59:09;21.07;;;10.50;;
3547;SDS011;1788;49.400;11.092;2022-11-28T02:01:36;20.97;;;9.90;;
3547;SDS011;1788;49.400;11.092;2022-11-28T02:04:03;21.37;;;11.33;;
3547;SDS011;1788;49.400;11.092;2022-11-28T02:06:30;22.70;;;11.00;;
3547;SDS011;1788;49.400;11.092;2022-11-28T02:08:56;20.20;;;9.90;;
3547;SDS011;1788;49.400;11.092;2022-11-28T02:13:53;19.83;;;10.37;;
3547;SDS011;1788;49.400;11.092;2022-11-28T02:16:22;23.53;;;11.77;;
3547;SDS011;1788;49.400;11.092;2022-11-28T02:33:28;22.13;;;10.90;;
3547;SDS011;1788;49.400;11.092;2022-11-28T02:50:36;20.23;;;11.43;;
3547;SDS011;1788;49.400;11.092;2022-11-28T02:55:27;22.07;;;11.73;;
3547;SDS011;1788;49.400;11.092;2022-11-28T02:57:54;22.00;;;10.60;;
3547;SDS011;1788;49.400;11.092;2022-11-28T03:02:49;18.97;;;11.90;;
3547;SDS011;1788;49.400;11.092;2022-11-28T03:07:48;22.33;;;12.00;;
3547;SDS011;1788;49.400;11.092;2022-11-28T03:10:12;23.97;;;12.37;;
3547;SDS011;1788;49.400;11.092;2022-11-28T03:12:39;27.87;;;12.27;;
3547;SDS011;1788;49.400;11.092;2022-11-28T03:15:02;25.43;;;11.40;;
3547;SDS011;1788;49.400;11.092;2022-11-28T03:19:57;30.50;;;14.90;;
3547;SDS011;1788;49.400;11.092;2022-11-28T03:24:51;23.23;;;11.23;;
3547;SDS011;1788;49.400;11.092;2022-11-28T03:29:43;23.73;;;12.37;;
3547;SDS011;1788;49.400;11.092;2022-11-28T03:32:09;26.60;;;13.23;;
3547;SDS011;1788;49.400;11.092;2022-11-28T03:37:02;25.37;;;13.43;;
3547;SDS011;1788;49.400;11.092;2022-11-28T03:39:29;25.03;;;12.33;;
3547;SDS011;1788;49.400;11.092;2022-11-28T03:44:25;21.03;;;11.10;;
3547;SDS011;1788;49.400;11.092;2022-11-28T03:46:49;22.83;;;12.27;;
3547;SDS011;1788;49.400;11.092;2022-11-28T03:49:17;27.07;;;12.77;;
3547;SDS011;1788;49.400;11.092;2022-11-28T03:51:45;26.40;;;12.20;;
3547;SDS011;1788;49.400;11.092;2022-11-28T03:56:37;26.73;;;11.07;;
3547;SDS011;1788;49.400;11.092;2022-11-28T04:01:31;26.53;;;12.87;;
3547;SDS011;1788;49.400;11.092;2022-11-28T04:06:24;22.27;;;11.83;;
3547;SDS011;1788;49.400;11.092;2022-11-28T04:08:51;26.40;;;11.60;;
3547;SDS011;1788;49.400;11.092;2022-11-28T04:11:16;29.23;;;12.23;;
3547;SDS011;1788;49.400;11.092;2022-11-28T04:13:46;30.13;;;15.50;;
3547;SDS011;1788;49.400;11.092;2022-11-28T04:23:29;25.17;;;12.43;;
3547;SDS011;1788;49.400;11.092;2022-11-28T04:28:23;23.40;;;11.30;;
3547;SDS011;1788;49.400;11.092;2022-11-28T04:30:49;21.80;;;11.30;;
3547;SDS011;1788;49.400;11.092;2022-11-28T04:33:16;24.63;;;12.07;;
3547;SDS011;1788;49.400;11.092;2022-11-28T04:35:44;23.03;;;12.40;;
3547;SDS011;1788;49.400;11.092;2022-11-28T04:38:09;24.53;;;12.13;;
3547;SDS011;1788;49.400;11.092;2022-11-28T04:40:39;23.83;;;11.47;;
3547;SDS011;1788;49.400;11.092;2022-11-28T04:43:03;22.87;;;11.20;;
3547;SDS011;1788;49.400;11.092;2022-11-28T04:45:29;24.20;;;11.17;;
3547;SDS011;1788;49.400;11.092;2022-11-28T04:47:55;26.10;;;12.73;;
3547;SDS011;1788;49.400;11.092;2022-11-28T04:50:22;29.47;;;11.80;;
3547;SDS011;1788;49.400;11.092;2022-11-28T04:52:50;25.03;;;11.13;;
3547;SDS011;1788;49.400;11.092;2022-11-28T04:57:42;23.60;;;11.33;;
3547;SDS011;1788;49.400;11.092;2022-11-28T05:02:34;25.20;;;12.57;;
3547;SDS011;1788;49.400;11.092;2022-11-28T05:05:05;26.43;;;12.67;;
3547;SDS011;1788;49.400;11.092;2022-11-28T05:07:28;26.57;;;12.93;;
3547;SDS011;1788;49.400;11.092;2022-11-28T05:09:54;27.20;;;12.93;;
3547;SDS011;1788;49.400;11.092;2022-11-28T05:12:21;26.57;;;12.50;;
3547;SDS011;1788;49.400;11.092;2022-11-28T05:14:48;23.17;;;12.33;;
3547;SDS011;1788;49.400;11.092;2022-11-28T05:17:15;23.73;;;12.43;;
3547;SDS011;1788;49.400;11.092;2022-11-28T05:19:41;21.60;;;11.40;;
3547;SDS011;1788;49.400;11.092;2022-11-28T05:22:08;23.00;;;13.50;;
3547;SDS011;1788;49.400;11.092;2022-11-28T05:24:35;23.40;;;12.50;;
3547;SDS011;1788;49.400;11.092;2022-11-28T05:27:01;26.40;;;12.30;;
3547;SDS011;1788;49.400;11.092;2022-11-28T05:29:28;24.97;;;12.83;;
3547;SDS011;1788;49.400;11.092;2022-11-28T05:31:55;25.20;;;13.00;;
3547;SDS011;1788;49.400;11.092;2022-11-28T05:34:21;23.43;;;13.20;;
3547;SDS011;1788;49.400;11.092;2022-11-28T05:36:48;28.47;;;13.73;;
3547;SDS011;1788;49.400;11.092;2022-11-28T05:39:15;25.27;;;12.63;;
3547;SDS011;1788;49.400;11.092;2022-11-28T05:41:42;25.47;;;12.83;;
3547;SDS011;1788;49.400;11.092;2022-11-28T05:44:08;25.63;;;12.87;;
3547;SDS011;1788;49.400;11.092;2022-11-28T05:46:35;27.37;;;12.40;;
3547;SDS011;1788;49.400;11.092;2022-11-28T05:49:02;24.03;;;12.30;;
3547;SDS011;1788;49.400;11.092;2022-11-28T05:51:28;33.30;;;14.53;;
3547;SDS011;1788;49.400;11.092;2022-11-28T05:53:55;33.20;;;16.57;;
3547;SDS011;1788;49.400;11.092;2022-11-28T05:56:21;24.83;;;13.67;;
3547;SDS011;1788;49.400;11.092;2022-11-28T05:58:49;26.60;;;13.03;;
3547;SDS011;1788;49.400;11.092;2022-11-28T06:03:43;23.63;;;12.90;;
3547;SDS011;1788;49.400;11.092;2022-11-28T06:08:37;27.30;;;13.90;;
3547;SDS011;1788;49.400;11.092;2022-11-28T06:11:04;26.40;;;14.30;;
3547;SDS011;1788;49.400;11.092;2022-11-28T06:13:31;24.77;;;13.20;;
3547;SDS011;1788;49.400;11.092;2022-11-28T06:15:57;23.83;;;12.27;;
3547;SDS011;1788;49.400;11.092;2022-11-28T06:18:24;27.87;;;12.77;;
3547;SDS011;1788;49.400;11.092;2022-11-28T06:20:51;24.67;;;12.40;;
3547;SDS011;1788;49.400;11.092;2022-11-28T06:23:17;29.87;;;12.90;;
3547;SDS011;1788;49.400;11.092;2022-11-28T06:25:44;25.13;;;12.80;;
3547;SDS011;1788;49.400;11.092;2022-11-28T06:28:10;24.73;;;12.17;;
3547;SDS011;1788;49.400;11.092;2022-11-28T06:30:37;23.50;;;12.37;;
3547;SDS011;1788;49.400;11.092;2022-11-28T06:33:04;25.20;;;12.07;;
3547;SDS011;1788;49.400;11.092;2022-11-28T06:35:31;26.80;;;12.67;;
3547;SDS011;1788;49.400;11.092;2022-11-28T06:37:58;22.70;;;12.40;;
3547;SDS011;1788;49.400;11.092;2022-11-28T06:40:25;24.40;;;12.47;;
3547;SDS011;1788;49.400;11.092;2022-11-28T06:42:52;26.80;;;12.77;;
3547;SDS011;1788;49.400;11.092;2022-11-28T06:45:18;19.90;;;11.27;;
3547;SDS011;1788;49.400;11.092;2022-11-28T06:47:45;21.17;;;12.73;;
3547;SDS011;1788;49.400;11.092;2022-11-28T06:50:12;23.23;;;13.70;;
3547;SDS011;1788;49.400;11.092;2022-11-28T06:52:39;33.60;;;15.33;;
3547;SDS011;1788;49.400;11.092;2022-11-28T06:55:06;27.87;;;13.37;;
3547;SDS011;1788;49.400;11.092;2022-11-28T06:57:33;28.00;;;14.97;;
3547;SDS011;1788;49.400;11.092;2022-11-28T07:00:00;24.20;;;12.03;;
3547;SDS011;1788;49.400;11.092;2022-11-28T07:02:27;23.00;;;11.23;;
3547;SDS011;1788;49.400;11.092;2022-11-28T07:04:54;24.30;;;12.40;;
3547;SDS011;1788;49.400;11.092;2022-11-28T07:07:20;24.13;;;11.60;;
3547;SDS011;1788;49.400;11.092;2022-11-28T07:09:47;23.17;;;12.17;;
3547;SDS011;1788;49.400;11.092;2022-11-28T07:12:13;23.67;;;13.83;;
3547;SDS011;1788;49.400;11.092;2022-11-28T07:14:40;22.67;;;11.73;;
3547;SDS011;1788;49.400;11.092;2022-11-28T07:17:07;23.57;;;12.80;;
3547;SDS011;1788;49.400;11.092;2022-11-28T07:19:33;26.23;;;13.87;;
3547;SDS011;1788;49.400;11.092;2022-11-28T07:22:00;25.43;;;12.40;;
3547;SDS011;1788;49.400;11.092;2022-11-28T07:24:26;29.73;;;13.13;;
3547;SDS011;1788;49.400;11.092;2022-11-28T07:26:54;31.10;;;14.67;;
3547;SDS011;1788;49.400;11.092;2022-11-28T07:29:20;27.70;;;13.53;;
3547;SDS011;1788;49.400;11.092;2022-11-28T07:31:47;24.37;;;12.23;;
3547;SDS011;1788;49.400;11.092;2022-11-28T07:34:14;26.53;;;14.50;;
3547;SDS011;1788;49.400;11.092;2022-11-28T07:36:40;28.30;;;15.33;;
3547;SDS011;1788;49.400;11.092;2022-11-28T07:39:07;29.80;;;14.23;;
3547;SDS011;1788;49.400;11.092;2022-11-28T07:41:34;22.03;;;12.33;;
3547;SDS011;1788;49.400;11.092;2022-11-28T07:44:01;24.60;;;12.17;;
3547;SDS011;1788;49.400;11.092;2022-11-28T07:46:28;22.23;;;11.87;;
3547;SDS011;1788;49.400;11.092;2022-11-28T07:48:54;26.57;;;12.43;;
3547;SDS011;1788;49.400;11.092;2022-11-28T07:51:22;27.73;;;13.30;;
3547;SDS011;1788;49.400;11.092;2022-11-28T07:53:48;27.70;;;13.53;;
3547;SDS011;1788;49.400;11.092;2022-11-28T07:56:16;27.50;;;12.80;;
3547;SDS011;1788;49.400;11.092;2022-11-28T07:58:43;23.93;;;12.80;;
3547;SDS011;1788;49.400;11.092;2022-11-28T08:01:10;26.63;;;11.50;;
3547;SDS011;1788;49.400;11.092;2022-11-28T08:03:37;22.73;;;12.37;;
3547;SDS011;1788;49.400;11.092;2022-11-28T08:06:04;23.30;;;12.13;;
3547;SDS011;1788;49.400;11.092;2022-11-28T08:08:30;23.37;;;12.10;;
3547;SDS011;1788;49.400;11.092;2022-11-28T08:13:23;22.13;;;13.10;;
3547;SDS011;1788;49.400;11.092;2022-11-28T08:15:50;21.67;;;11.63;;
3547;SDS011;1788;49.400;11.092;2022-11-28T08:18:16;24.60;;;12.50;;
3547;SDS011;1788;49.400;11.092;2022-11-28T08:20:43;25.43;;;12.43;;
3547;SDS011;1788;49.400;11.092;2022-11-28T08:23:10;22.17;;;13.10;;
3547;SDS011;1788;49.400;11.092;2022-11-28T08:25:36;26.87;;;12.70;;
3547;SDS011;1788;49.400;11.092;2022-11-28T08:28:03;23.40;;;12.43;;
3547;SDS011;1788;49.400;11.092;2022-11-28T08:30:29;24.63;;;11.93;;
3547;SDS011;1788;49.400;11.092;2022-11-28T08:32:56;29.60;;;14.33;;
3547;SDS011;1788;49.400;11.092;2022-11-28T08:35:23;24.77;;;12.50;;
3547;SDS011;1788;49.400;11.092;2022-11-28T08:37:50;24.03;;;12.63;;
3547;SDS011;1788;49.400;11.092;2022-11-28T08:40:17;22.07;;;11.33;;
3547;SDS011;1788;49.400;11.092;2022-11-28T08:42:44;30.97;;;12.53;;
3547;SDS011;1788;49.400;11.092;2022-11-28T08:45:11;26.70;;;13.40;;
3547;SDS011;1788;49.400;11.092;2022-11-28T08:47:43;25.27;;;11.87;;
3547;SDS011;1788;49.400;11.092;2022-11-28T08:50:10;26.17;;;13.20;;
3547;SDS011;1788;49.400;11.092;2022-11-28T08:52:36;26.27;;;13.23;;
3547;SDS011;1788;49.400;11.092;2022-11-28T08:55:03;24.60;;;12.70;;
3547;SDS011;1788;49.400;11.092;2022-11-28T08:57:29;23.93;;;13.03;;
3547;SDS011;1788;49.400;11.092;2022-11-28T08:59:57;28.23;;;14.27;;
3547;SDS011;1788;49.400;11.092;2022-11-28T09:02:23;25.23;;;14.17;;
3547;SDS011;1788;49.400;11.092;2022-11-28T09:04:50;26.00;;;12.37;;
3547;SDS011;1788;49.400;11.092;2022-11-28T09:07:17;25.67;;;13.23;;
3547;SDS011;1788;49.400;11.092;2022-11-28T09:09:44;23.83;;;12.73;;
3547;SDS011;1788;49.400;11.092;2022-11-28T09:12:11;23.87;;;12.90;;
3547;SDS011;1788;49.400;11.092;2022-11-28T09:14:37;28.57;;;13.87;;
3547;SDS011;1788;49.400;11.092;2022-11-28T09:17:05;25.97;;;13.07;;
3547;SDS011;1788;49.400;11.092;2022-11-28T09:19:31;27.90;;;12.63;;
3547;SDS011;1788;49.400;11.092;2022-11-28T09:21:59;35.87;;;17.17;;
3547;SDS011;1788;49.400;11.092;2022-11-28T09:24:25;29.17;;;14.00;;
3547;SDS011;1788;49.400;11.092;2022-11-28T09:26:53;31.67;;;13.77;;
3547;SDS011;1788;49.400;11.092;2022-11-28T09:29:20;22.80;;;12.83;;
3547;SDS011;1788;49.400;11.092;2022-11-28T09:31:46;25.13;;;12.47;;
3547;SDS011;1788;49.400;11.092;2022-11-28T09:34:13;31.10;;;14.60;;
3547;SDS011;1788;49.400;11.092;2022-11-28T09:36:40;26.10;;;12.93;;
3547;SDS011;1788;49.400;11.092;2022-11-28T09:39:07;23.70;;;12.00;;
3547;SDS011;1788;49.400;11.092;2022-11-28T09:44:02;21.60;;;11.70;;
3547;SDS011;1788;49.400;11.092;2022-11-28T09:46:30;24.67;;;12.23;;
3547;SDS011;1788;49.400;11.092;2022-11-28T09:48:57;21.93;;;11.40;;
3547;SDS011;1788;49.400;11.092;2022-11-28T09:56:16;23.70;;;12.80;;
3547;SDS011;1788;49.400;11.092;2022-11-28T10:01:13;22.33;;;12.33;;
3547;SDS011;1788;49.400;11.092;2022-11-28T10:03:39;24.03;;;12.27;;
3547;SDS011;1788;49.400;11.092;2022-11-28T10:06:06;27.93;;;13.27;;
3547;SDS011;1788;49.400;11.092;2022-11-28T10:20:45;25.00;;;11.07;;
3547;SDS011;1788;49.400;11.092;2022-11-28T10:28:08;23.13;;;11.73;;
3547;SDS011;1788;49.400;11.092;2022-11-28T10:30:35;25.90;;;13.33;;
3547;SDS011;1788;49.400;11.092;2022-11-28T10:33:03;24.47;;;12.60;;
3547;SDS011;1788;49.400;11.092;2022-11-28T10:37:53;21.40;;;11.30;;
3547;SDS011;1788;49.400;11.092;2022-11-28T10:42:52;20.80;;;11.40;;
3547;SDS011;1788;49.400;11.092;2022-11-28T10:47:43;25.67;;;13.07;;
3547;SDS011;1788;49.400;11.092;2022-11-28T10:52:35;27.70;;;13.80;;
3547;SDS011;1788;49.400;11.092;2022-11-28T10:55:06;26.30;;;13.67;;
3547;SDS011;1788;49.400;11.092;2022-11-28T11:02:25;24.10;;;12.63;;
3547;SDS011;1788;49.400;11.092;2022-11-28T11:04:48;23.80;;;13.20;;
3547;SDS011;1788;49.400;11.092;2022-11-28T11:09:42;24.30;;;13.93;;
3547;SDS011;1788;49.400;11.092;2022-11-28T11:12:13;26.83;;;13.23;;
3547;SDS011;1788;49.400;11.092;2022-11-28T11:14:36;23.63;;;13.07;;
3547;SDS011;1788;49.400;11.092;2022-11-28T11:17:03;29.77;;;13.47;;
3547;SDS011;1788;49.400;11.092;2022-11-28T11:21:57;28.87;;;14.33;;
3547;SDS011;1788;49.400;11.092;2022-11-28T11:24:23;19.20;;;10.70;;
3547;SDS011;1788;49.400;11.092;2022-11-28T11:26:49;25.60;;;12.97;;
3547;SDS011;1788;49.400;11.092;2022-11-28T11:31:43;28.07;;;14.97;;
3547;SDS011;1788;49.400;11.092;2022-11-28T11:34:12;19.50;;;10.93;;
3547;SDS011;1788;49.400;11.092;2022-11-28T11:36:36;23.27;;;12.70;;
3547;SDS011;1788;49.400;11.092;2022-11-28T11:41:29;20.63;;;10.90;;
3547;SDS011;1788;49.400;11.092;2022-11-28T11:43:56;19.43;;;11.27;;
3547;SDS011;1788;49.400;11.092;2022-11-28T11:46:22;19.63;;;10.20;;
3547;SDS011;1788;49.400;11.092;2022-11-28T11:48:50;27.03;;;14.07;;
3547;SDS011;1788;49.400;11.092;2022-11-28T11:53:43;28.87;;;15.03;;
3547;SDS011;1788;49.400;11.092;2022-11-28T11:56:10;30.67;;;15.70;;
3547;SDS011;1788;49.400;11.092;2022-11-28T12:01:03;22.20;;;11.17;;
3547;SDS011;1788;49.400;11.092;2022-11-28T12:05:57;20.17;;;11.67;;
3547;SDS011;1788;49.400;11.092;2022-11-28T12:10:52;21.70;;;10.97;;
3547;SDS011;1788;49.400;11.092;2022-11-28T12:13:18;23.87;;;13.67;;
3547;SDS011;1788;49.400;11.092;2022-11-28T12:18:14;26.13;;;13.47;;
3547;SDS011;1788;49.400;11.092;2022-11-28T12:20:41;23.63;;;13.93;;
3547;SDS011;1788;49.400;11.092;2022-11-28T12:25:33;28.73;;;13.93;;
3547;SDS011;1788;49.400;11.092;2022-11-28T12:30:27;27.17;;;13.87;;
3547;SDS011;1788;49.400;11.092;2022-11-28T12:59:48;28.53;;;13.70;;
3547;SDS011;1788;49.400;11.092;2022-11-28T13:07:11;27.00;;;14.40;;
3547;SDS011;1788;49.400;11.092;2022-11-28T13:09:33;30.07;;;15.47;;
3547;SDS011;1788;49.400;11.092;2022-11-28T13:12:02;26.80;;;13.87;;
3547;SDS011;1788;49.400;11.092;2022-11-28T13:16:53;31.27;;;15.20;;
3547;SDS011;1788;49.400;11.092;2022-11-28T13:26:40;23.07;;;12.97;;
3547;SDS011;1788;49.400;11.092;2022-11-28T13:29:11;24.60;;;13.33;;
3547;SDS011;1788;49.400;11.092;2022-11-28T13:33:59;28.33;;;13.70;;
3547;SDS011;1788;49.400;11.092;2022-11-28T13:41:21;21.70;;;12.70;;
3547;SDS011;1788;49.400;11.092;2022-11-28T13:46:13;22.50;;;13.17;;
3547;SDS011;1788;49.400;11.092;2022-11-28T13:53:34;26.70;;;14.70;;
3547;SDS011;1788;49.400;11.092;2022-11-28T13:58:28;27.57;;;14.87;;
3547;SDS011;1788;49.400;11.092;2022-11-28T14:03:20;27.43;;;13.57;;
3547;SDS011;1788;49.400;11.092;2022-11-28T14:05:47;29.43;;;14.63;;
3547;SDS011;1788;49.400;11.092;2022-11-28T14:18:05;27.03;;;14.57;;
3547;SDS011;1788;49.400;11.092;2022-11-28T14:27:49;25.17;;;13.47;;
3547;SDS011;1788;49.400;11.092;2022-11-28T14:32:40;23.27;;;13.60;;
3547;SDS011;1788;49.400;11.092;2022-11-28T14:37:35;28.53;;;14.90;;
3547;SDS011;1788;49.400;11.092;2022-11-28T14:40:01;24.27;;;13.77;;
3547;SDS011;1788;49.400;11.092;2022-11-28T14:49:48;24.20;;;13.90;;
3547;SDS011;1788;49.400;11.092;2022-11-28T14:52:16;26.00;;;13.30;;
3547;SDS011;1788;49.400;11.092;2022-11-28T14:54:41;27.67;;;14.63;;
3547;SDS011;1788;49.400;11.092;2022-11-28T14:59:36;26.50;;;14.17;;
3547;SDS011;1788;49.400;11.092;2022-11-28T15:06:55;30.70;;;15.37;;
3547;SDS011;1788;49.400;11.092;2022-11-28T15:09:33;25.97;;;16.00;;
3547;SDS011;1788;49.400;11.092;2022-11-28T15:16:44;24.97;;;14.70;;
3547;SDS011;1788;49.400;11.092;2022-11-28T15:26:31;29.20;;;14.83;;
3547;SDS011;1788;49.400;11.092;2022-11-28T15:31:24;30.97;;;16.13;;
3547;SDS011;1788;49.400;11.092;2022-11-28T15:33:51;32.27;;;16.90;;
3547;SDS011;1788;49.400;11.092;2022-11-28T15:38:45;31.37;;;15.83;;
3547;SDS011;1788;49.400;11.092;2022-11-28T15:41:12;26.17;;;14.23;;
3547;SDS011;1788;49.400;11.092;2022-11-28T15:43:41;25.60;;;15.73;;
3547;SDS011;1788;49.400;11.092;2022-11-28T15:46:05;27.47;;;15.10;;
3547;SDS011;1788;49.400;11.092;2022-11-28T15:50:58;27.50;;;15.27;;
3547;SDS011;1788;49.400;11.092;2022-11-28T15:53:25;28.77;;;16.23;;
3547;SDS011;1788;49.400;11.092;2022-11-28T15:58:19;31.17;;;16.07;;
3547;SDS011;1788;49.400;11.092;2022-11-28T16:00:47;28.80;;;16.33;;
3547;SDS011;1788;49.400;11.092;2022-11-28T16:03:15;29.73;;;16.13;;
3547;SDS011;1788;49.400;11.092;2022-11-28T16:05:40;33.47;;;18.13;;
3547;SDS011;1788;49.400;11.092;2022-11-28T16:08:15;35.10;;;17.13;;
3547;SDS011;1788;49.400;11.092;2022-11-28T16:10:34;31.60;;;17.53;;
3547;SDS011;1788;49.400;11.092;2022-11-28T16:13:00;37.00;;;16.90;;
3547;SDS011;1788;49.400;11.092;2022-11-28T16:15:26;27.17;;;14.93;;
3547;SDS011;1788;49.400;11.092;2022-11-28T16:17:53;32.83;;;16.73;;
3547;SDS011;1788;49.400;11.092;2022-11-28T16:22:47;28.53;;;15.43;;
3547;SDS011;1788;49.400;11.092;2022-11-28T16:27:41;27.53;;;14.83;;
3547;SDS011;1788;49.400;11.092;2022-11-28T16:35:01;32.13;;;16.37;;
3547;SDS011;1788;49.400;11.092;2022-11-28T16:37:28;27.03;;;16.87;;
3547;SDS011;1788;49.400;11.092;2022-11-28T16:42:22;30.90;;;16.97;;
3547;SDS011;1788;49.400;11.092;2022-11-28T16:44:48;28.87;;;16.47;;
3547;SDS011;1788;49.400;11.092;2022-11-28T16:49:46;32.83;;;17.33;;
3547;SDS011;1788;49.400;11.092;2022-11-28T16:54:35;33.77;;;17.13;;
3547;SDS011;1788;49.400;11.092;2022-11-28T16:59:29;38.67;;;18.57;;
3547;SDS011;1788;49.400;11.092;2022-11-28T17:01:56;30.73;;;18.23;;
3547;SDS011;1788;49.400;11.092;2022-11-28T17:04:23;33.17;;;18.13;;
3547;SDS011;1788;49.400;11.092;2022-11-28T17:06:50;36.47;;;17.90;;
3547;SDS011;1788;49.400;11.092;2022-11-28T17:09:17;35.43;;;17.93;;
3547;SDS011;1788;49.400;11.092;2022-11-28T17:11:45;33.17;;;17.50;;
3547;SDS011;1788;49.400;11.092;2022-11-28T17:16:36;34.70;;;17.63;;
3547;SDS011;1788;49.400;11.092;2022-11-28T17:19:03;28.57;;;17.20;;
3547;SDS011;1788;49.400;11.092;2022-11-28T17:23:57;38.43;;;18.30;;
3547;SDS011;1788;49.400;11.092;2022-11-28T17:26:23;37.63;;;19.03;;
3547;SDS011;1788;49.400;11.092;2022-11-28T17:28:51;40.00;;;19.50;;
3547;SDS011;1788;49.400;11.092;2022-11-28T17:31:17;34.03;;;18.93;;
3547;SDS011;1788;49.400;11.092;2022-11-28T17:33:44;38.00;;;19.70;;
3547;SDS011;1788;49.400;11.092;2022-11-28T17:36:11;33.10;;;18.83;;
3547;SDS011;1788;49.400;11.092;2022-11-28T17:38:38;35.83;;;19.40;;
3547;SDS011;1788;49.400;11.092;2022-11-28T17:41:04;42.63;;;20.53;;
3547;SDS011;1788;49.400;11.092;2022-11-28T17:43:31;38.53;;;18.57;;
3547;SDS011;1788;49.400;11.092;2022-11-28T17:45:58;34.80;;;19.63;;
3547;SDS011;1788;49.400;11.092;2022-11-28T17:48:24;42.07;;;20.00;;
3547;SDS011;1788;49.400;11.092;2022-11-28T17:50:51;36.00;;;18.57;;
3547;SDS011;1788;49.400;11.092;2022-11-28T17:53:18;33.83;;;17.43;;
3547;SDS011;1788;49.400;11.092;2022-11-28T17:55:45;32.43;;;15.53;;
3547;SDS011;1788;49.400;11.092;2022-11-28T18:00:38;35.43;;;18.70;;
3547;SDS011;1788;49.400;11.092;2022-11-28T18:03:05;32.73;;;19.53;;
3547;SDS011;1788;49.400;11.092;2022-11-28T18:05:34;38.43;;;19.23;;
3547;SDS011;1788;49.400;11.092;2022-11-28T18:07:59;30.70;;;17.63;;
3547;SDS011;1788;49.400;11.092;2022-11-28T18:10:25;34.47;;;18.67;;
3547;SDS011;1788;49.400;11.092;2022-11-28T18:12:52;34.40;;;18.67;;
3547;SDS011;1788;49.400;11.092;2022-11-28T18:15:19;40.47;;;19.00;;
3547;SDS011;1788;49.400;11.092;2022-11-28T18:17:45;35.50;;;17.00;;
3547;SDS011;1788;49.400;11.092;2022-11-28T18:20:12;37.20;;;18.07;;
3547;SDS011;1788;49.400;11.092;2022-11-28T18:22:38;32.37;;;17.07;;
3547;SDS011;1788;49.400;11.092;2022-11-28T18:25:05;33.93;;;17.43;;
3547;SDS011;1788;49.400;11.092;2022-11-28T18:27:33;30.47;;;17.37;;
3547;SDS011;1788;49.400;11.092;2022-11-28T18:29:59;33.30;;;17.30;;
3547;SDS011;1788;49.400;11.092;2022-11-28T18:32:26;39.10;;;19.03;;
3547;SDS011;1788;49.400;11.092;2022-11-28T18:34:52;34.47;;;20.00;;
3547;SDS011;1788;49.400;11.092;2022-11-28T18:37:20;31.33;;;17.20;;
3547;SDS011;1788;49.400;11.092;2022-11-28T18:39:46;31.17;;;17.47;;
3547;SDS011;1788;49.400;11.092;2022-11-28T18:42:13;34.70;;;17.93;;
3547;SDS011;1788;49.400;11.092;2022-11-28T18:44:39;28.23;;;17.63;;
3547;SDS011;1788;49.400;11.092;2022-11-28T18:47:07;33.87;;;18.17;;
3547;SDS011;1788;49.400;11.092;2022-11-28T18:49:33;27.83;;;16.13;;
3547;SDS011;1788;49.400;11.092;2022-11-28T18:52:00;33.53;;;17.13;;
3547;SDS011;1788;49.400;11.092;2022-11-28T18:54:27;34.73;;;17.67;;
3547;SDS011;1788;49.400;11.092;2022-11-28T18:56:54;28.33;;;16.90;;
3547;SDS011;1788;49.400;11.092;2022-11-28T18:59:21;35.17;;;17.23;;
3547;SDS011;1788;49.400;11.092;2022-11-28T19:01:47;29.80;;;17.57;;
3547;SDS011;1788;49.400;11.092;2022-11-28T19:04:14;33.93;;;18.67;;
3547;SDS011;1788;49.400;11.092;2022-11-28T19:06:41;36.13;;;17.23;;
3547;SDS011;1788;49.400;11.092;2022-11-28T19:09:08;34.03;;;17.87;;
3547;SDS011;1788;49.400;11.092;2022-11-28T19:11:34;33.13;;;17.13;;
3547;SDS011;1788;49.400;11.092;2022-11-28T19:14:00;30.23;;;16.37;;
3547;SDS011;1788;49.400;11.092;2022-11-28T19:16:28;32.20;;;17.57;;
3547;SDS011;1788;49.400;11.092;2022-11-28T19:18:55;30.57;;;16.50;;
3547;SDS011;1788;49.400;11.092;2022-11-28T19:21:23;31.40;;;17.07;;
3547;SDS011;1788;49.400;11.092;2022-11-28T19:23:48;28.60;;;17.60;;
3547;SDS011;1788;49.400;11.092;2022-11-28T19:26:17;28.30;;;16.87;;
3547;SDS011;1788;49.400;11.092;2022-11-28T19:28:42;31.47;;;17.20;;
3547;SDS011;1788;49.400;11.092;2022-11-28T19:33:35;34.20;;;18.50;;
3547;SDS011;1788;49.400;11.092;2022-11-28T19:36:04;31.73;;;16.47;;
3547;SDS011;1788;49.400;11.092;2022-11-28T19:38:30;28.83;;;16.17;;
3547;SDS011;1788;49.400;11.092;2022-11-28T19:40:57;26.43;;;15.53;;